sensor_id;sensor_type;location;lat;lon;timestamp;pressure;altitude;pressure_sealevel;temperature;humidity
49377;BME280;35253;34.688;33.040;2022-08-19T00:01:28;99919.88;;;28.16;100.00
49377;BME280;35253;34.688;33.040;2022-08-19T00:03:55;99913.94;;;28.19;100.00
49377;BME280;35253;34.688;33.040;2022-08-19T00:06:20;99911.81;;;28.21;100.00
49377;BME280;35253;34.688;33.040;2022-08-19T00:08:45;99919.22;;;28.21;100.00
49377;BME280;35253;34.688;33.040;2022-08-19T00:11:11;99917.75;;;28.18;100.00
49377;BME280;35253;34.688;33.040;2022-08-19T00:13:37;99917.34;;;28.15;100.00
49377;BME280;35253;34.688;33.040;2022-08-19T00:16:04;99921.53;;;28.17;100.00
49377;BME280;35253;34.688;33.040;2022-08-19T00:18:31;99921.16;;;28.14;100.00
49377;BME280;35253;34.688;33.040;2022-08-19T00:20:56;99925.78;;;28.13;100.00
49377;BME280;35253;34.688;33.040;2022-08-19T00:23:21;99921.78;;;28.16;100.00
49377;BME280;35253;34.688;33.040;2022-08-19T00:25:47;99919.72;;;28.11;100.00
49377;BME280;35253;34.688;33.040;2022-08-19T00:28:12;99918.31;;;27.96;100.00
49377;BME280;35253;34.688;33.040;2022-08-19T00:30:38;99911.38;;;27.93;100.00
49377;BME280;35253;34.688;33.040;2022-08-19T00:33:03;99916.06;;;27.86;100.00
49377;BME280;35253;34.688;33.040;2022-08-19T00:35:29;99918.84;;;27.79;100.00
49377;BME280;35253;34.688;33.040;2022-08-19T00:37:55;99916.75;;;27.75;100.00
49377;BME280;35253;34.688;33.040;2022-08-19T00:40:21;99926.03;;;27.74;100.00
49377;BME280;35253;34.688;33.040;2022-08-19T00:42:46;99919.94;;;27.72;100.00
49377;BME280;35253;34.688;33.040;2022-08-19T00:45:14;99930.72;;;27.67;100.00
49377;BME280;35253;34.688;33.040;2022-08-19T00:47:40;99926.47;;;27.71;100.00
49377;BME280;35253;34.688;33.040;2022-08-19T00:50:06;99926.59;;;27.51;100.00
49377;BME280;35253;34.688;33.040;2022-08-19T00:52:33;99921.13;;;27.51;100.00
49377;BME280;35253;34.688;33.040;2022-08-19T00:55:00;99923.66;;;27.46;100.00
49377;BME280;35253;34.688;33.040;2022-08-19T00:57:35;99917.78;;;27.36;100.00
49377;BME280;35253;34.688;33.040;2022-08-19T01:00:04;99923.47;;;27.34;100.00
49377;BME280;35253;34.688;33.040;2022-08-19T01:02:30;99928.75;;;27.36;100.00
49377;BME280;35253;34.688;33.040;2022-08-19T01:04:57;99925.22;;;27.22;100.00
49377;BME280;35253;34.688;33.040;2022-08-19T01:07:24;99923.75;;;27.20;100.00
49377;BME280;35253;34.688;33.040;2022-08-19T01:09:49;99919.53;;;27.24;100.00
49377;BME280;35253;34.688;33.040;2022-08-19T01:12:15;99919.13;;;27.20;100.00
49377;BME280;35253;34.688;33.040;2022-08-19T01:14:41;99919.09;;;27.27;100.00
49377;BME280;35253;34.688;33.040;2022-08-19T01:17:09;99916.16;;;27.28;100.00
49377;BME280;35253;34.688;33.040;2022-08-19T01:19:36;99925.38;;;27.34;100.00
49377;BME280;35253;34.688;33.040;2022-08-19T01:24:33;99922.16;;;27.44;100.00
49377;BME280;35253;34.688;33.040;2022-08-19T01:26:59;99917.31;;;27.46;100.00
49377;BME280;35253;34.688;33.040;2022-08-19T01:29:24;99925.13;;;27.49;100.00
49377;BME280;35253;34.688;33.040;2022-08-19T01:31:50;99916.34;;;27.33;100.00
49377;BME280;35253;34.688;33.040;2022-08-19T01:34:17;99907.69;;;27.37;100.00
49377;BME280;35253;34.688;33.040;2022-08-19T01:36:44;99921.97;;;27.39;100.00
49377;BME280;35253;34.688;33.040;2022-08-19T01:39:15;99924.09;;;27.37;100.00
49377;BME280;35253;34.688;33.040;2022-08-19T01:41:42;99908.28;;;27.39;100.00
49377;BME280;35253;34.688;33.040;2022-08-19T01:44:07;99912.28;;;27.43;100.00
49377;BME280;35253;34.688;33.040;2022-08-19T01:46:33;99915.66;;;27.45;100.00
49377;BME280;35253;34.688;33.040;2022-08-19T01:48:59;99921.75;;;27.47;100.00
49377;BME280;35253;34.688;33.040;2022-08-19T01:51:25;99922.78;;;27.52;100.00
49377;BME280;35253;34.688;33.040;2022-08-19T01:53:51;99917.72;;;27.56;100.00
49377;BME280;35253;34.688;33.040;2022-08-19T01:56:17;99917.28;;;27.59;100.00
49377;BME280;35253;34.688;33.040;2022-08-19T01:58:45;99914.31;;;27.60;100.00
49377;BME280;35253;34.688;33.040;2022-08-19T02:01:13;99914.38;;;27.54;100.00
49377;BME280;35253;34.688;33.040;2022-08-19T02:03:39;99914.31;;;27.60;100.00
49377;BME280;35253;34.688;33.040;2022-08-19T02:06:04;99909.25;;;27.64;100.00
49377;BME280;35253;34.688;33.040;2022-08-19T02:08:30;99912.22;;;27.62;100.00
49377;BME280;35253;34.688;33.040;2022-08-19T02:10:56;99914.75;;;27.57;100.00
49377;BME280;35253;34.688;33.040;2022-08-19T02:13:22;99913.72;;;27.52;100.00
49377;BME280;35253;34.688;33.040;2022-08-19T02:15:48;99919.84;;;27.54;100.00
49377;BME280;35253;34.688;33.040;2022-08-19T02:18:14;99916.06;;;27.55;100.00
49377;BME280;35253;34.688;33.040;2022-08-19T02:20:40;99905.94;;;27.55;100.00
49377;BME280;35253;34.688;33.040;2022-08-19T02:23:05;99910.19;;;27.51;100.00
49377;BME280;35253;34.688;33.040;2022-08-19T02:25:31;99908.06;;;27.47;100.00
49377;BME280;35253;34.688;33.040;2022-08-19T02:27:57;99914.34;;;27.47;100.00
49377;BME280;35253;34.688;33.040;2022-08-19T02:30:22;99920.28;;;27.51;100.00
49377;BME280;35253;34.688;33.040;2022-08-19T02:32:48;99913.72;;;27.52;100.00
49377;BME280;35253;34.688;33.040;2022-08-19T02:35:14;99919.25;;;27.39;100.00
49377;BME280;35253;34.688;33.040;2022-08-19T02:37:41;99920.97;;;27.26;100.00
49377;BME280;35253;34.688;33.040;2022-08-19T02:40:25;99919.50;;;27.30;100.00
49377;BME280;35253;34.688;33.040;2022-08-19T02:42:50;99930.44;;;27.30;100.00
49377;BME280;35253;34.688;33.040;2022-08-19T02:45:16;99928.34;;;27.32;100.00
49377;BME280;35253;34.688;33.040;2022-08-19T02:47:41;99930.03;;;27.27;100.00
49377;BME280;35253;34.688;33.040;2022-08-19T02:50:07;99934.88;;;27.31;100.00
49377;BME280;35253;34.688;33.040;2022-08-19T02:52:33;99933.22;;;27.24;100.00
49377;BME280;35253;34.688;33.040;2022-08-19T02:54:59;99929.63;;;27.23;100.00
49377;BME280;35253;34.688;33.040;2022-08-19T02:57:25;99928.59;;;27.18;100.00
49377;BME280;35253;34.688;33.040;2022-08-19T02:59:51;99921.63;;;27.22;100.00
49377;BME280;35253;34.688;33.040;2022-08-19T03:02:16;99926.91;;;27.23;100.00
49377;BME280;35253;34.688;33.040;2022-08-19T03:04:41;99940.16;;;27.26;100.00
49377;BME280;35253;34.688;33.040;2022-08-19T03:07:07;99932.16;;;27.25;100.00
49377;BME280;35253;34.688;33.040;2022-08-19T03:09:33;99930.47;;;27.24;100.00
49377;BME280;35253;34.688;33.040;2022-08-19T03:11:58;99937.66;;;27.18;100.00
49377;BME280;35253;34.688;33.040;2022-08-19T03:14:23;99933.88;;;27.19;100.00
49377;BME280;35253;34.688;33.040;2022-08-19T03:16:50;99934.66;;;27.26;100.00
49377;BME280;35253;34.688;33.040;2022-08-19T03:19:17;99941.38;;;27.30;100.00
49377;BME280;35253;34.688;33.040;2022-08-19T03:21:43;99942.44;;;27.29;100.00
49377;BME280;35253;34.688;33.040;2022-08-19T03:24:13;99932.78;;;27.27;100.00
49377;BME280;35253;34.688;33.040;2022-08-19T03:26:39;99938.28;;;27.20;100.00
49377;BME280;35253;34.688;33.040;2022-08-19T03:29:05;99940.16;;;27.26;100.00
49377;BME280;35253;34.688;33.040;2022-08-19T03:31:31;99939.09;;;27.27;100.00
49377;BME280;35253;34.688;33.040;2022-08-19T03:33:56;99946.47;;;27.33;100.00
49377;BME280;35253;34.688;33.040;2022-08-19T03:36:23;99945.56;;;27.40;100.00
49377;BME280;35253;34.688;33.040;2022-08-19T03:38:50;99946.41;;;27.47;100.00
49377;BME280;35253;34.688;33.040;2022-08-19T03:41:23;99945.22;;;27.23;100.00
49377;BME280;35253;34.688;33.040;2022-08-19T03:43:50;99943.53;;;27.28;100.00
49377;BME280;35253;34.688;33.040;2022-08-19T03:46:16;99949.78;;;27.35;100.00
49377;BME280;35253;34.688;33.040;2022-08-19T03:48:43;99953.56;;;27.48;100.00
49377;BME280;35253;34.688;33.040;2022-08-19T03:51:15;99945.53;;;27.53;100.00
49377;BME280;35253;34.688;33.040;2022-08-19T03:53:41;99949.31;;;27.58;100.00
49377;BME280;35253;34.688;33.040;2022-08-19T03:56:08;99959.41;;;27.64;100.00
49377;BME280;35253;34.688;33.040;2022-08-19T03:58:34;99944.88;;;27.64;100.00
49377;BME280;35253;34.688;33.040;2022-08-19T04:00:59;99958.13;;;27.67;100.00
49377;BME280;35253;34.688;33.040;2022-08-19T04:03:25;99959.34;;;27.71;100.00
49377;BME280;35253;34.688;33.040;2022-08-19T04:05:51;99958.25;;;27.78;100.00
49377;BME280;35253;34.688;33.040;2022-08-19T04:08:17;99964.75;;;27.84;100.00
49377;BME280;35253;34.688;33.040;2022-08-19T04:10:46;99972.31;;;27.89;100.00
49377;BME280;35253;34.688;33.040;2022-08-19T04:13:12;99966.38;;;27.98;100.00
49377;BME280;35253;34.688;33.040;2022-08-19T04:15:41;99964.19;;;28.07;100.00
49377;BME280;35253;34.688;33.040;2022-08-19T04:18:09;99965.00;;;28.14;100.00
49377;BME280;35253;34.688;33.040;2022-08-19T04:20:45;99966.81;;;28.27;100.00
49377;BME280;35253;34.688;33.040;2022-08-19T04:23:12;99968.38;;;28.41;100.00
49377;BME280;35253;34.688;33.040;2022-08-19T04:25:38;99979.25;;;28.54;100.00
49377;BME280;35253;34.688;33.040;2022-08-19T04:28:04;99982.16;;;28.59;100.00
49377;BME280;35253;34.688;33.040;2022-08-19T04:30:30;99970.72;;;28.62;100.00
49377;BME280;35253;34.688;33.040;2022-08-19T04:32:55;99979.13;;;28.67;100.00
49377;BME280;35253;34.688;33.040;2022-08-19T04:35:21;99971.72;;;28.74;100.00
49377;BME280;35253;34.688;33.040;2022-08-19T04:37:47;99978.03;;;28.75;100.00
49377;BME280;35253;34.688;33.040;2022-08-19T04:40:12;99976.50;;;28.79;100.00
49377;BME280;35253;34.688;33.040;2022-08-19T04:42:56;99980.09;;;28.79;100.00
49377;BME280;35253;34.688;33.040;2022-08-19T04:45:22;99994.53;;;28.68;100.00
49377;BME280;35253;34.688;33.040;2022-08-19T04:47:47;99995.09;;;28.52;100.00
49377;BME280;35253;34.688;33.040;2022-08-19T04:50:13;100000.72;;;28.32;100.00
49377;BME280;35253;34.688;33.040;2022-08-19T04:52:39;100000.06;;;28.37;100.00
49377;BME280;35253;34.688;33.040;2022-08-19T04:55:10;100008.56;;;28.53;100.00
49377;BME280;35253;34.688;33.040;2022-08-19T04:57:36;100011.44;;;28.02;100.00
49377;BME280;35253;34.688;33.040;2022-08-19T05:00:05;100012.38;;;27.90;100.00
49377;BME280;35253;34.688;33.040;2022-08-19T05:02:31;100024.50;;;28.07;100.00
49377;BME280;35253;34.688;33.040;2022-08-19T05:04:57;100015.59;;;28.18;100.00
49377;BME280;35253;34.688;33.040;2022-08-19T05:07:25;100020.13;;;28.31;100.00
49377;BME280;35253;34.688;33.040;2022-08-19T05:09:51;100021.88;;;28.81;100.00
49377;BME280;35253;34.688;33.040;2022-08-19T05:12:17;100013.69;;;28.99;100.00
49377;BME280;35253;34.688;33.040;2022-08-19T05:14:42;100017.66;;;29.03;100.00
49377;BME280;35253;34.688;33.040;2022-08-19T05:17:10;100024.84;;;29.23;100.00
49377;BME280;35253;34.688;33.040;2022-08-19T05:19:35;100032.22;;;29.47;100.00
49377;BME280;35253;34.688;33.040;2022-08-19T05:22:19;100024.03;;;29.22;100.00
49377;BME280;35253;34.688;33.040;2022-08-19T05:24:57;100032.06;;;29.60;100.00
49377;BME280;35253;34.688;33.040;2022-08-19T05:27:23;100026.63;;;29.72;100.00
49377;BME280;35253;34.688;33.040;2022-08-19T05:29:48;100028.09;;;29.74;100.00
49377;BME280;35253;34.688;33.040;2022-08-19T05:32:13;100024.50;;;29.92;100.00
49377;BME280;35253;34.688;33.040;2022-08-19T05:34:39;100036.16;;;30.06;100.00
49377;BME280;35253;34.688;33.040;2022-08-19T05:37:05;100033.81;;;30.21;100.00
49377;BME280;35253;34.688;33.040;2022-08-19T05:39:31;100027.84;;;29.94;100.00
49377;BME280;35253;34.688;33.040;2022-08-19T05:41:58;100024.25;;;29.93;100.00
49377;BME280;35253;34.688;33.040;2022-08-19T05:44:25;100028.88;;;30.11;100.00
49377;BME280;35253;34.688;33.040;2022-08-19T05:46:51;100024.69;;;30.09;100.00
49377;BME280;35253;34.688;33.040;2022-08-19T05:49:20;100021.06;;;29.96;100.00
49377;BME280;35253;34.688;33.040;2022-08-19T05:51:48;100029.03;;;30.28;100.00
49377;BME280;35253;34.688;33.040;2022-08-19T05:54:14;100020.97;;;30.15;100.00
49377;BME280;35253;34.688;33.040;2022-08-19T05:56:39;100023.47;;;29.86;100.00
49377;BME280;35253;34.688;33.040;2022-08-19T05:59:06;100032.13;;;29.53;100.00
49377;BME280;35253;34.688;33.040;2022-08-19T06:01:36;100025.25;;;29.44;100.00
49377;BME280;35253;34.688;33.040;2022-08-19T06:04:02;100018.09;;;29.62;100.00
49377;BME280;35253;34.688;33.040;2022-08-19T06:06:27;100022.13;;;29.77;100.00
49377;BME280;35253;34.688;33.040;2022-08-19T06:08:53;100032.53;;;29.14;100.00
49377;BME280;35253;34.688;33.040;2022-08-19T06:11:22;100034.38;;;28.77;100.00
49377;BME280;35253;34.688;33.040;2022-08-19T06:13:49;100035.19;;;29.02;100.00
49377;BME280;35253;34.688;33.040;2022-08-19T06:16:20;100031.84;;;29.00;100.00
49377;BME280;35253;34.688;33.040;2022-08-19T06:18:52;100031.63;;;28.77;100.00
49377;BME280;35253;34.688;33.040;2022-08-19T06:21:21;100033.59;;;28.95;100.00
49377;BME280;35253;34.688;33.040;2022-08-19T06:23:47;100027.56;;;28.55;100.00
49377;BME280;35253;34.688;33.040;2022-08-19T06:26:13;100037.84;;;28.91;100.00
49377;BME280;35253;34.688;33.040;2022-08-19T06:28:39;100026.75;;;29.04;100.00
49377;BME280;35253;34.688;33.040;2022-08-19T06:31:11;100023.63;;;29.19;100.00
49377;BME280;35253;34.688;33.040;2022-08-19T06:33:39;100019.34;;;29.23;100.00
49377;BME280;35253;34.688;33.040;2022-08-19T06:36:04;100029.00;;;29.32;100.00
49377;BME280;35253;34.688;33.040;2022-08-19T06:38:30;100023.34;;;29.27;100.00
49377;BME280;35253;34.688;33.040;2022-08-19T06:41:04;100029.66;;;29.27;100.00
49377;BME280;35253;34.688;33.040;2022-08-19T06:43:29;100032.38;;;29.34;100.00
49377;BME280;35253;34.688;33.040;2022-08-19T06:45:55;100023.56;;;29.25;100.00
49377;BME280;35253;34.688;33.040;2022-08-19T06:48:20;100019.91;;;29.31;100.00
49377;BME280;35253;34.688;33.040;2022-08-19T06:50:46;100027.75;;;29.28;100.00
49377;BME280;35253;34.688;33.040;2022-08-19T06:53:12;100022.97;;;29.41;100.00
49377;BME280;35253;34.688;33.040;2022-08-19T06:55:37;100032.69;;;29.44;100.00
49377;BME280;35253;34.688;33.040;2022-08-19T06:58:04;100021.06;;;29.60;100.00
49377;BME280;35253;34.688;33.040;2022-08-19T07:00:31;100030.06;;;29.49;100.00
49377;BME280;35253;34.688;33.040;2022-08-19T07:02:57;100036.88;;;29.46;100.00
49377;BME280;35253;34.688;33.040;2022-08-19T07:05:23;100034.66;;;29.37;100.00
49377;BME280;35253;34.688;33.040;2022-08-19T07:07:48;100035.03;;;29.40;100.00
49377;BME280;35253;34.688;33.040;2022-08-19T07:10:14;100029.91;;;29.62;100.00
49377;BME280;35253;34.688;33.040;2022-08-19T07:12:40;100034.81;;;29.42;100.00
49377;BME280;35253;34.688;33.040;2022-08-19T07:15:06;100035.50;;;29.37;100.00
49377;BME280;35253;34.688;33.040;2022-08-19T07:17:34;100022.81;;;29.54;100.00
49377;BME280;35253;34.688;33.040;2022-08-19T07:20:02;100031.28;;;29.71;100.00
49377;BME280;35253;34.688;33.040;2022-08-19T07:22:28;100029.69;;;29.45;100.00
49377;BME280;35253;34.688;33.040;2022-08-19T07:24:53;100038.03;;;29.39;100.00
49377;BME280;35253;34.688;33.040;2022-08-19T07:27:19;100040.25;;;29.48;100.00
49377;BME280;35253;34.688;33.040;2022-08-19T07:29:45;100048.69;;;29.83;100.00
49377;BME280;35253;34.688;33.040;2022-08-19T07:32:10;100033.44;;;29.69;100.00
49377;BME280;35253;34.688;33.040;2022-08-19T07:34:36;100040.75;;;29.93;100.00
49377;BME280;35253;34.688;33.040;2022-08-19T07:37:03;100044.47;;;29.81;100.00
49377;BME280;35253;34.688;33.040;2022-08-19T07:39:29;100045.09;;;29.83;100.00
49377;BME280;35253;34.688;33.040;2022-08-19T07:41:56;100041.44;;;29.89;100.00
49377;BME280;35253;34.688;33.040;2022-08-19T07:44:21;100045.66;;;29.91;100.00
49377;BME280;35253;34.688;33.040;2022-08-19T07:46:49;100042.28;;;29.89;100.00
49377;BME280;35253;34.688;33.040;2022-08-19T07:49:15;100038.13;;;29.98;100.00
49377;BME280;35253;34.688;33.040;2022-08-19T07:51:45;100044.53;;;30.11;100.00
49377;BME280;35253;34.688;33.040;2022-08-19T07:54:10;100038.47;;;29.90;100.00
49377;BME280;35253;34.688;33.040;2022-08-19T07:56:36;100035.06;;;30.07;100.00
49377;BME280;35253;34.688;33.040;2022-08-19T07:59:02;100048.38;;;30.10;100.00
49377;BME280;35253;34.688;33.040;2022-08-19T08:01:28;100044.06;;;30.14;100.00
49377;BME280;35253;34.688;33.040;2022-08-19T08:03:54;100040.72;;;30.12;100.00
49377;BME280;35253;34.688;33.040;2022-08-19T08:06:38;100043.19;;;29.83;100.00
49377;BME280;35253;34.688;33.040;2022-08-19T08:09:30;100041.22;;;30.20;100.00
49377;BME280;35253;34.688;33.040;2022-08-19T08:11:58;100041.28;;;30.32;100.00
49377;BME280;35253;34.688;33.040;2022-08-19T08:14:26;100033.31;;;30.24;100.00
49377;BME280;35253;34.688;33.040;2022-08-19T08:16:52;100036.81;;;30.49;100.00
49377;BME280;35253;34.688;33.040;2022-08-19T08:19:19;100040.81;;;30.05;100.00
49377;BME280;35253;34.688;33.040;2022-08-19T08:21:45;100035.50;;;29.92;100.00
49377;BME280;35253;34.688;33.040;2022-08-19T08:24:11;100041.72;;;30.29;100.00
49377;BME280;35253;34.688;33.040;2022-08-19T08:26:37;100036.59;;;30.03;100.00
49377;BME280;35253;34.688;33.040;2022-08-19T08:29:03;100040.03;;;30.28;100.00
49377;BME280;35253;34.688;33.040;2022-08-19T08:31:28;100040.84;;;30.17;100.00
49377;BME280;35253;34.688;33.040;2022-08-19T08:33:54;100036.13;;;30.35;100.00
49377;BME280;35253;34.688;33.040;2022-08-19T08:36:19;100041.84;;;30.64;100.00
49377;BME280;35253;34.688;33.040;2022-08-19T08:38:45;100039.22;;;30.57;100.00
49377;BME280;35253;34.688;33.040;2022-08-19T08:43:44;100028.44;;;30.67;100.00
49377;BME280;35253;34.688;33.040;2022-08-19T08:46:19;100031.44;;;30.66;100.00
49377;BME280;35253;34.688;33.040;2022-08-19T08:48:59;100022.03;;;30.97;100.00
49377;BME280;35253;34.688;33.040;2022-08-19T08:51:29;100007.19;;;30.98;100.00
49377;BME280;35253;34.688;33.040;2022-08-19T08:53:58;100021.72;;;30.63;100.00
49377;BME280;35253;34.688;33.040;2022-08-19T08:56:24;100018.88;;;30.81;100.00
49377;BME280;35253;34.688;33.040;2022-08-19T09:01:15;100017.19;;;30.57;100.00
49377;BME280;35253;34.688;33.040;2022-08-19T09:03:41;100018.66;;;30.71;100.00
49377;BME280;35253;34.688;33.040;2022-08-19T09:06:17;100016.88;;;30.88;100.00
49377;BME280;35253;34.688;33.040;2022-08-19T09:11:41;100011.81;;;30.85;100.00
49377;BME280;35253;34.688;33.040;2022-08-19T09:16:53;100014.25;;;31.17;100.00
49377;BME280;35253;34.688;33.040;2022-08-19T09:19:18;100008.38;;;31.25;100.00
49377;BME280;35253;34.688;33.040;2022-08-19T09:21:44;100011.47;;;31.40;100.00
49377;BME280;35253;34.688;33.040;2022-08-19T09:24:10;100019.13;;;31.38;100.00
49377;BME280;35253;34.688;33.040;2022-08-19T09:26:35;100009.09;;;31.32;100.00
49377;BME280;35253;34.688;33.040;2022-08-19T09:29:01;100003.31;;;31.45;100.00
49377;BME280;35253;34.688;33.040;2022-08-19T09:31:32;100011.22;;;31.53;100.00
49377;BME280;35253;34.688;33.040;2022-08-19T09:33:58;100015.56;;;31.26;100.00
49377;BME280;35253;34.688;33.040;2022-08-19T09:36:25;100020.63;;;31.06;100.00
49377;BME280;35253;34.688;33.040;2022-08-19T09:38:52;100011.97;;;31.37;100.00
49377;BME280;35253;34.688;33.040;2022-08-19T09:41:19;100015.56;;;31.26;100.00
49377;BME280;35253;34.688;33.040;2022-08-19T09:43:45;100017.94;;;31.57;100.00
49377;BME280;35253;34.688;33.040;2022-08-19T09:46:11;100020.63;;;31.06;100.00
49377;BME280;35253;34.688;33.040;2022-08-19T09:48:37;100013.94;;;31.65;100.00
49377;BME280;35253;34.688;33.040;2022-08-19T09:51:07;100025.53;;;31.79;100.00
49377;BME280;35253;34.688;33.040;2022-08-19T09:53:34;100029.31;;;31.49;100.00
49377;BME280;35253;34.688;33.040;2022-08-19T09:56:00;100026.56;;;31.49;100.00
49377;BME280;35253;34.688;33.040;2022-08-19T09:58:25;100022.59;;;31.57;100.00
49377;BME280;35253;34.688;33.040;2022-08-19T10:00:56;100027.50;;;31.43;100.00
49377;BME280;35253;34.688;33.040;2022-08-19T10:03:23;100022.94;;;31.60;100.00
49377;BME280;35253;34.688;33.040;2022-08-19T10:05:49;100031.69;;;32.09;100.00
49377;BME280;35253;34.688;33.040;2022-08-19T10:08:22;100017.50;;;31.77;100.00
49377;BME280;35253;34.688;33.040;2022-08-19T10:10:48;100023.50;;;31.86;100.00
49377;BME280;35253;34.688;33.040;2022-08-19T10:13:15;100016.97;;;31.63;100.00
49377;BME280;35253;34.688;33.040;2022-08-19T10:15:41;100016.91;;;32.15;100.00
49377;BME280;35253;34.688;33.040;2022-08-19T10:18:07;100013.00;;;32.11;100.00
49377;BME280;35253;34.688;33.040;2022-08-19T10:20:33;100013.81;;;31.71;100.00
49377;BME280;35253;34.688;33.040;2022-08-19T10:23:00;100017.75;;;32.04;100.00
49377;BME280;35253;34.688;33.040;2022-08-19T10:25:26;100026.03;;;31.75;100.00
49377;BME280;35253;34.688;33.040;2022-08-19T10:27:52;100023.41;;;32.09;100.00
49377;BME280;35253;34.688;33.040;2022-08-19T10:30:17;100008.31;;;32.00;100.00
49377;BME280;35253;34.688;33.040;2022-08-19T10:32:44;100014.16;;;32.15;100.00
49377;BME280;35253;34.688;33.040;2022-08-19T10:35:11;100011.06;;;32.00;100.00
49377;BME280;35253;34.688;33.040;2022-08-19T10:37:37;100013.38;;;31.91;100.00
49377;BME280;35253;34.688;33.040;2022-08-19T10:40:03;100015.63;;;32.06;100.00
49377;BME280;35253;34.688;33.040;2022-08-19T10:42:29;100012.91;;;31.94;100.00
49377;BME280;35253;34.688;33.040;2022-08-19T10:44:56;100013.28;;;31.86;100.00
49377;BME280;35253;34.688;33.040;2022-08-19T10:47:21;100017.50;;;31.77;100.00
49377;BME280;35253;34.688;33.040;2022-08-19T10:49:48;100002.66;;;32.06;100.00
49377;BME280;35253;34.688;33.040;2022-08-19T10:52:32;99994.94;;;32.20;100.00
49377;BME280;35253;34.688;33.040;2022-08-19T10:55:01;100021.00;;;32.12;100.00
49377;BME280;35253;34.688;33.040;2022-08-19T10:57:46;100010.00;;;31.72;100.00
49377;BME280;35253;34.688;33.040;2022-08-19T11:00:11;100002.69;;;31.95;100.00
49377;BME280;35253;34.688;33.040;2022-08-19T11:02:38;100009.72;;;31.86;100.00
49377;BME280;35253;34.688;33.040;2022-08-19T11:05:04;100004.44;;;32.12;100.00
49377;BME280;35253;34.688;33.040;2022-08-19T11:07:32;100003.97;;;31.75;100.00
49377;BME280;35253;34.688;33.040;2022-08-19T11:09:57;99992.75;;;32.22;100.00
49377;BME280;35253;34.688;33.040;2022-08-19T11:12:23;99989.41;;;32.82;100.00
49377;BME280;35253;34.688;33.040;2022-08-19T11:14:49;99991.56;;;32.46;100.00
49377;BME280;35253;34.688;33.040;2022-08-19T11:17:15;99984.25;;;32.40;100.00
49377;BME280;35253;34.688;33.040;2022-08-19T11:19:40;99980.31;;;32.08;100.00
49377;BME280;35253;34.688;33.040;2022-08-19T11:22:08;99972.56;;;32.83;100.00
49377;BME280;35253;34.688;33.040;2022-08-19T11:24:34;99982.81;;;31.93;100.00
49377;BME280;35253;34.688;33.040;2022-08-19T11:27:04;99973.88;;;32.14;100.00
49377;BME280;35253;34.688;33.040;2022-08-19T11:29:31;99971.09;;;32.14;100.00
49377;BME280;35253;34.688;33.040;2022-08-19T11:31:56;99970.41;;;31.79;100.00
49377;BME280;35253;34.688;33.040;2022-08-19T11:34:24;99967.06;;;31.77;100.00
49377;BME280;35253;34.688;33.040;2022-08-19T11:36:50;99967.97;;;31.94;100.00
49377;BME280;35253;34.688;33.040;2022-08-19T11:39:17;99962.88;;;32.02;100.00
49377;BME280;35253;34.688;33.040;2022-08-19T11:41:43;99960.34;;;32.29;100.00
49377;BME280;35253;34.688;33.040;2022-08-19T11:44:08;99951.34;;;32.05;100.00
49377;BME280;35253;34.688;33.040;2022-08-19T11:46:35;99960.09;;;31.86;100.00
49377;BME280;35253;34.688;33.040;2022-08-19T11:49:01;99959.75;;;32.10;100.00
49377;BME280;35253;34.688;33.040;2022-08-19T11:51:28;99960.53;;;32.56;100.00
49377;BME280;35253;34.688;33.040;2022-08-19T11:53:54;99960.16;;;33.02;100.00
49377;BME280;35253;34.688;33.040;2022-08-19T11:56:20;99956.81;;;32.17;100.00
49377;BME280;35253;34.688;33.040;2022-08-19T11:58:46;99957.66;;;32.34;100.00
49377;BME280;35253;34.688;33.040;2022-08-19T12:01:12;99961.53;;;32.33;100.00
49377;BME280;35253;34.688;33.040;2022-08-19T12:03:40;99958.25;;;32.08;100.00
49377;BME280;35253;34.688;33.040;2022-08-19T12:06:07;99953.81;;;31.62;100.00
49377;BME280;35253;34.688;33.040;2022-08-19T12:08:33;99955.69;;;31.73;100.00
49377;BME280;35253;34.688;33.040;2022-08-19T12:10:59;99954.31;;;32.32;100.00
49377;BME280;35253;34.688;33.040;2022-08-19T12:13:27;99949.66;;;31.59;100.00
49377;BME280;35253;34.688;33.040;2022-08-19T12:15:53;99942.50;;;31.75;100.00
49377;BME280;35253;34.688;33.040;2022-08-19T12:18:19;99959.00;;;31.58;100.00
49377;BME280;35253;34.688;33.040;2022-08-19T12:20:44;99955.34;;;31.69;100.00
49377;BME280;35253;34.688;33.040;2022-08-19T12:23:10;99944.88;;;31.55;100.00
49377;BME280;35253;34.688;33.040;2022-08-19T12:25:37;99957.91;;;31.88;100.00
49377;BME280;35253;34.688;33.040;2022-08-19T12:28:03;99958.88;;;31.82;100.00
49377;BME280;35253;34.688;33.040;2022-08-19T12:30:28;99952.94;;;30.98;100.00
49377;BME280;35253;34.688;33.040;2022-08-19T12:32:53;99950.31;;;31.03;100.00
49377;BME280;35253;34.688;33.040;2022-08-19T12:35:19;99934.38;;;31.17;100.00
49377;BME280;35253;34.688;33.040;2022-08-19T12:37:48;99948.16;;;31.68;100.00
49377;BME280;35253;34.688;33.040;2022-08-19T12:40:15;99952.41;;;31.59;100.00
49377;BME280;35253;34.688;33.040;2022-08-19T12:42:40;99949.66;;;32.04;100.00
49377;BME280;35253;34.688;33.040;2022-08-19T12:45:09;99957.91;;;31.48;100.00
49377;BME280;35253;34.688;33.040;2022-08-19T12:47:35;99952.50;;;31.01;100.00